Concord Municipal Airport Concord US
ICAO: KCON
IATA: CON
Category: Medium
Scheduled Services: No

Elevation: 342 ft
TransAlt. 18000 ft.

Airport Communications:
BOSTON APP/DEP:127.35
ASOS:132.32
CLNC DEL:133.65
ARNG OPS:32.1
BANGOR RDO:122.3
CTAF/UNICOM:122.7

KCON Zoom In..

Runways:

(A) RW 12 length 3200 ft width 75 ft
---- / hdg 121

(B) RW 17 length 6005 ft width 100 ft
---- / hdg 171

(C) RW 30 length 3200 ft width 75 ft
---- / hdg 301

(D) RW 35 length 6005 ft width 100 ft
ILS 108.70 / hdg 351

Location; KCON
Day. 21 / Time. 14.51 Zulu
* Altimeter: 30.16
* Temperature: 21° c. 69.8°f.
* Wind from: 310° Speed 09 kn.
Dewpoint: 03° c.
Visibility: 10 Statute Miles.
Clouds: Clear (automated report).

KCON 211451Z AUTO 31009KT 10SM CLR 21/03 A3016 RMK AO2 SLP212 T02110033 58002


Wind From 310°
Speed 09 kn.

 
 
jpsmedia.com for Web Design SOUNDCLOUD worldairports.se 2018   terms of use